Island City, Oregon
Current Conditions -  °F | °C
As of 12:15 PM on Sunday 25 Jan 2015 (Local Time) from KLGD Reporting Station
Clear Clear  
Wind Chill: 41°   Ceiling: Unl
Heat Index: 48°   Visibility: 10mi
Dew Point: 30°   Wind: 22mph
Humidity: 50%   Direction: 180°S
Pressure: 30.33"   Gusts: 30mph
Location:  45.2284°N, 118.272°W
Report Text: KLGD 252015Z AUTO 18019G26KT 10SM CLR 09/M01 A3033 RMK AO1
Loading
Personal Weather Stations






























Interactive Weather Map New forecast layout! Learn more

10-Day Weather Forecast

Advertisements
Track Severe Weather on mobile